sensor_id;sensor_type;location;lat;lon;timestamp;P1;durP1;ratioP1;P2;durP2;ratioP2
57113;SDS011;42994;51.606;9.988;2023-06-22T00:00:10;14.57;;;12.70;;
57113;SDS011;42994;51.606;9.988;2023-06-22T00:02:37;15.27;;;13.57;;
57113;SDS011;42994;51.606;9.988;2023-06-22T00:05:04;13.45;;;12.25;;
57113;SDS011;42994;51.606;9.988;2023-06-22T00:07:31;14.52;;;11.68;;
57113;SDS011;42994;51.606;9.988;2023-06-22T00:09:59;12.23;;;10.98;;
57113;SDS011;42994;51.606;9.988;2023-06-22T00:12:26;12.38;;;10.80;;
57113;SDS011;42994;51.606;9.988;2023-06-22T00:14:53;12.77;;;11.27;;
57113;SDS011;42994;51.606;9.988;2023-06-22T00:17:20;14.68;;;11.40;;
57113;SDS011;42994;51.606;9.988;2023-06-22T00:19:47;14.50;;;10.70;;
57113;SDS011;42994;51.606;9.988;2023-06-22T00:22:18;14.52;;;11.18;;
57113;SDS011;42994;51.606;9.988;2023-06-22T00:24:46;13.00;;;11.75;;
57113;SDS011;42994;51.606;9.988;2023-06-22T00:27:14;12.27;;;11.05;;
57113;SDS011;42994;51.606;9.988;2023-06-22T00:29:41;16.58;;;12.23;;
57113;SDS011;42994;51.606;9.988;2023-06-22T00:32:08;12.25;;;10.25;;
57113;SDS011;42994;51.606;9.988;2023-06-22T00:34:34;12.68;;;11.38;;
57113;SDS011;42994;51.606;9.988;2023-06-22T00:37:01;13.93;;;12.43;;
57113;SDS011;42994;51.606;9.988;2023-06-22T00:39:28;17.35;;;12.60;;
57113;SDS011;42994;51.606;9.988;2023-06-22T00:41:55;14.52;;;12.95;;
57113;SDS011;42994;51.606;9.988;2023-06-22T00:44:23;14.13;;;11.82;;
57113;SDS011;42994;51.606;9.988;2023-06-22T00:46:50;15.45;;;11.38;;
57113;SDS011;42994;51.606;9.988;2023-06-22T00:49:17;14.25;;;11.27;;
57113;SDS011;42994;51.606;9.988;2023-06-22T00:51:44;16.23;;;11.77;;
57113;SDS011;42994;51.606;9.988;2023-06-22T00:54:12;13.45;;;11.50;;
57113;SDS011;42994;51.606;9.988;2023-06-22T00:56:40;13.00;;;10.40;;
57113;SDS011;42994;51.606;9.988;2023-06-22T00:59:07;12.45;;;11.15;;
57113;SDS011;42994;51.606;9.988;2023-06-22T01:01:38;13.80;;;10.85;;
57113;SDS011;42994;51.606;9.988;2023-06-22T01:04:06;11.02;;;9.90;;
57113;SDS011;42994;51.606;9.988;2023-06-22T01:06:34;17.55;;;11.93;;
57113;SDS011;42994;51.606;9.988;2023-06-22T01:09:06;16.40;;;11.32;;
57113;SDS011;42994;51.606;9.988;2023-06-22T01:11:37;18.83;;;11.68;;
57113;SDS011;42994;51.606;9.988;2023-06-22T01:14:12;29.30;;;13.75;;
57113;SDS011;42994;51.606;9.988;2023-06-22T01:16:46;23.65;;;12.88;;
57113;SDS011;42994;51.606;9.988;2023-06-22T01:19:19;21.60;;;14.77;;
57113;SDS011;42994;51.606;9.988;2023-06-22T01:21:55;22.20;;;16.67;;
57113;SDS011;42994;51.606;9.988;2023-06-22T01:24:26;20.00;;;13.18;;
57113;SDS011;42994;51.606;9.988;2023-06-22T01:27:07;15.88;;;12.38;;
57113;SDS011;42994;51.606;9.988;2023-06-22T01:29:41;22.52;;;12.07;;
57113;SDS011;42994;51.606;9.988;2023-06-22T01:32:09;21.05;;;14.40;;
57113;SDS011;42994;51.606;9.988;2023-06-22T01:34:38;14.85;;;12.90;;
57113;SDS011;42994;51.606;9.988;2023-06-22T01:37:06;14.70;;;11.90;;
57113;SDS011;42994;51.606;9.988;2023-06-22T01:39:34;13.95;;;12.57;;
57113;SDS011;42994;51.606;9.988;2023-06-22T01:42:01;17.38;;;12.48;;
57113;SDS011;42994;51.606;9.988;2023-06-22T01:44:30;13.98;;;12.57;;
57113;SDS011;42994;51.606;9.988;2023-06-22T01:46:59;19.23;;;12.00;;
57113;SDS011;42994;51.606;9.988;2023-06-22T01:49:26;17.10;;;12.13;;
57113;SDS011;42994;51.606;9.988;2023-06-22T01:51:54;17.70;;;12.88;;
57113;SDS011;42994;51.606;9.988;2023-06-22T01:54:21;26.48;;;15.18;;
57113;SDS011;42994;51.606;9.988;2023-06-22T01:56:47;22.50;;;16.48;;
57113;SDS011;42994;51.606;9.988;2023-06-22T01:59:16;29.83;;;15.48;;
57113;SDS011;42994;51.606;9.988;2023-06-22T02:01:50;25.33;;;18.13;;
57113;SDS011;42994;51.606;9.988;2023-06-22T02:04:26;25.50;;;17.50;;
57113;SDS011;42994;51.606;9.988;2023-06-22T02:06:58;25.50;;;18.58;;
57113;SDS011;42994;51.606;9.988;2023-06-22T02:09:27;15.77;;;13.93;;
57113;SDS011;42994;51.606;9.988;2023-06-22T02:11:56;20.40;;;14.57;;
57113;SDS011;42994;51.606;9.988;2023-06-22T02:14:28;18.13;;;14.10;;
57113;SDS011;42994;51.606;9.988;2023-06-22T02:16:55;15.93;;;12.38;;
57113;SDS011;42994;51.606;9.988;2023-06-22T02:19:26;15.43;;;13.77;;
57113;SDS011;42994;51.606;9.988;2023-06-22T02:21:58;18.30;;;14.23;;
57113;SDS011;42994;51.606;9.988;2023-06-22T02:24:25;18.33;;;13.98;;
57113;SDS011;42994;51.606;9.988;2023-06-22T02:26:53;18.50;;;14.80;;
57113;SDS011;42994;51.606;9.988;2023-06-22T02:29:20;19.48;;;14.35;;
57113;SDS011;42994;51.606;9.988;2023-06-22T02:31:47;18.75;;;15.00;;
57113;SDS011;42994;51.606;9.988;2023-06-22T02:34:13;21.45;;;15.48;;
57113;SDS011;42994;51.606;9.988;2023-06-22T02:36:44;19.52;;;14.70;;
57113;SDS011;42994;51.606;9.988;2023-06-22T02:39:16;15.63;;;14.13;;
57113;SDS011;42994;51.606;9.988;2023-06-22T02:41:43;17.15;;;14.75;;
57113;SDS011;42994;51.606;9.988;2023-06-22T02:44:10;14.82;;;13.32;;
57113;SDS011;42994;51.606;9.988;2023-06-22T02:46:37;18.40;;;14.65;;
57113;SDS011;42994;51.606;9.988;2023-06-22T02:49:04;19.20;;;13.88;;
57113;SDS011;42994;51.606;9.988;2023-06-22T02:51:32;16.67;;;13.55;;
57113;SDS011;42994;51.606;9.988;2023-06-22T02:54:03;20.13;;;14.27;;
57113;SDS011;42994;51.606;9.988;2023-06-22T02:56:30;17.65;;;15.75;;
57113;SDS011;42994;51.606;9.988;2023-06-22T02:58:59;23.95;;;16.20;;
57113;SDS011;42994;51.606;9.988;2023-06-22T03:01:30;17.67;;;14.65;;
57113;SDS011;42994;51.606;9.988;2023-06-22T03:04:03;22.92;;;14.18;;
57113;SDS011;42994;51.606;9.988;2023-06-22T03:06:30;18.10;;;13.65;;
57113;SDS011;42994;51.606;9.988;2023-06-22T03:08:58;27.35;;;18.25;;
57113;SDS011;42994;51.606;9.988;2023-06-22T03:11:28;30.48;;;19.83;;
57113;SDS011;42994;51.606;9.988;2023-06-22T03:13:57;31.17;;;20.27;;
57113;SDS011;42994;51.606;9.988;2023-06-22T03:16:24;26.02;;;17.15;;
57113;SDS011;42994;51.606;9.988;2023-06-22T03:18:52;24.15;;;16.08;;
57113;SDS011;42994;51.606;9.988;2023-06-22T03:21:19;20.65;;;14.93;;
57113;SDS011;42994;51.606;9.988;2023-06-22T03:23:48;30.02;;;14.85;;
57113;SDS011;42994;51.606;9.988;2023-06-22T03:26:16;26.38;;;14.63;;
57113;SDS011;42994;51.606;9.988;2023-06-22T03:28:45;21.40;;;14.10;;
57113;SDS011;42994;51.606;9.988;2023-06-22T03:31:13;22.65;;;14.45;;
57113;SDS011;42994;51.606;9.988;2023-06-22T03:33:40;27.02;;;13.77;;
57113;SDS011;42994;51.606;9.988;2023-06-22T03:36:07;22.75;;;14.20;;
57113;SDS011;42994;51.606;9.988;2023-06-22T03:38:34;22.20;;;14.05;;
57113;SDS011;42994;51.606;9.988;2023-06-22T03:41:01;18.80;;;13.65;;
57113;SDS011;42994;51.606;9.988;2023-06-22T03:43:29;24.52;;;15.70;;
57113;SDS011;42994;51.606;9.988;2023-06-22T03:45:57;34.00;;;19.67;;
57113;SDS011;42994;51.606;9.988;2023-06-22T03:48:26;31.48;;;20.08;;
57113;SDS011;42994;51.606;9.988;2023-06-22T03:50:53;30.95;;;22.25;;
57113;SDS011;42994;51.606;9.988;2023-06-22T03:53:20;28.08;;;17.60;;
57113;SDS011;42994;51.606;9.988;2023-06-22T03:55:50;25.70;;;16.88;;
57113;SDS011;42994;51.606;9.988;2023-06-22T03:58:18;19.98;;;17.17;;
57113;SDS011;42994;51.606;9.988;2023-06-22T04:00:47;20.08;;;16.67;;
57113;SDS011;42994;51.606;9.988;2023-06-22T04:03:16;24.40;;;15.88;;
57113;SDS011;42994;51.606;9.988;2023-06-22T04:05:43;21.60;;;16.02;;
57113;SDS011;42994;51.606;9.988;2023-06-22T04:08:11;18.95;;;15.10;;
57113;SDS011;42994;51.606;9.988;2023-06-22T04:10:38;21.98;;;16.90;;
57113;SDS011;42994;51.606;9.988;2023-06-22T04:13:07;21.33;;;17.83;;
57113;SDS011;42994;51.606;9.988;2023-06-22T04:15:34;24.42;;;15.88;;
57113;SDS011;42994;51.606;9.988;2023-06-22T04:18:01;22.17;;;15.68;;
57113;SDS011;42994;51.606;9.988;2023-06-22T04:20:29;23.40;;;15.07;;
57113;SDS011;42994;51.606;9.988;2023-06-22T04:22:57;18.52;;;16.48;;
57113;SDS011;42994;51.606;9.988;2023-06-22T04:25:24;22.17;;;15.68;;
57113;SDS011;42994;51.606;9.988;2023-06-22T04:27:50;32.17;;;17.38;;
57113;SDS011;42994;51.606;9.988;2023-06-22T04:30:17;27.02;;;16.33;;
57113;SDS011;42994;51.606;9.988;2023-06-22T04:32:44;23.35;;;16.58;;
57113;SDS011;42994;51.606;9.988;2023-06-22T04:35:22;25.10;;;16.88;;
57113;SDS011;42994;51.606;9.988;2023-06-22T04:37:55;21.45;;;16.85;;
57113;SDS011;42994;51.606;9.988;2023-06-22T04:40:24;23.42;;;17.52;;
57113;SDS011;42994;51.606;9.988;2023-06-22T04:42:51;28.50;;;16.80;;
57113;SDS011;42994;51.606;9.988;2023-06-22T04:45:20;22.85;;;16.75;;
57113;SDS011;42994;51.606;9.988;2023-06-22T04:47:48;19.40;;;15.82;;
57113;SDS011;42994;51.606;9.988;2023-06-22T04:50:15;22.23;;;17.08;;
57113;SDS011;42994;51.606;9.988;2023-06-22T04:52:42;24.27;;;18.98;;
57113;SDS011;42994;51.606;9.988;2023-06-22T04:55:12;21.35;;;15.65;;
57113;SDS011;42994;51.606;9.988;2023-06-22T04:57:43;20.33;;;15.55;;
57113;SDS011;42994;51.606;9.988;2023-06-22T05:00:14;21.95;;;15.77;;
57113;SDS011;42994;51.606;9.988;2023-06-22T05:02:42;21.42;;;15.63;;
57113;SDS011;42994;51.606;9.988;2023-06-22T05:05:10;20.70;;;15.50;;
57113;SDS011;42994;51.606;9.988;2023-06-22T05:07:39;18.38;;;15.65;;
57113;SDS011;42994;51.606;9.988;2023-06-22T05:10:08;17.05;;;15.23;;
57113;SDS011;42994;51.606;9.988;2023-06-22T05:12:37;19.90;;;15.20;;
57113;SDS011;42994;51.606;9.988;2023-06-22T05:15:04;20.40;;;14.13;;
57113;SDS011;42994;51.606;9.988;2023-06-22T05:17:32;19.00;;;13.40;;
57113;SDS011;42994;51.606;9.988;2023-06-22T05:19:59;17.73;;;13.25;;
57113;SDS011;42994;51.606;9.988;2023-06-22T05:22:26;14.90;;;12.50;;
57113;SDS011;42994;51.606;9.988;2023-06-22T05:24:53;16.90;;;13.18;;
57113;SDS011;42994;51.606;9.988;2023-06-22T05:27:22;19.00;;;14.35;;
57113;SDS011;42994;51.606;9.988;2023-06-22T05:29:50;17.50;;;15.75;;
57113;SDS011;42994;51.606;9.988;2023-06-22T05:32:17;22.15;;;15.75;;
57113;SDS011;42994;51.606;9.988;2023-06-22T05:34:44;21.17;;;16.15;;
57113;SDS011;42994;51.606;9.988;2023-06-22T05:37:12;22.42;;;17.52;;
57113;SDS011;42994;51.606;9.988;2023-06-22T05:39:39;19.42;;;16.40;;
57113;SDS011;42994;51.606;9.988;2023-06-22T05:42:06;16.17;;;14.00;;
57113;SDS011;42994;51.606;9.988;2023-06-22T05:44:33;19.38;;;14.38;;
57113;SDS011;42994;51.606;9.988;2023-06-22T05:47:02;19.80;;;14.98;;
57113;SDS011;42994;51.606;9.988;2023-06-22T05:49:29;19.83;;;14.25;;
57113;SDS011;42994;51.606;9.988;2023-06-22T05:51:57;19.35;;;13.57;;
57113;SDS011;42994;51.606;9.988;2023-06-22T05:54:24;21.98;;;17.10;;
57113;SDS011;42994;51.606;9.988;2023-06-22T05:56:51;25.52;;;18.85;;
57113;SDS011;42994;51.606;9.988;2023-06-22T05:59:20;16.48;;;14.75;;
57113;SDS011;42994;51.606;9.988;2023-06-22T06:01:47;15.85;;;14.20;;
57113;SDS011;42994;51.606;9.988;2023-06-22T06:04:17;17.75;;;15.18;;
57113;SDS011;42994;51.606;9.988;2023-06-22T06:06:44;17.15;;;14.68;;
57113;SDS011;42994;51.606;9.988;2023-06-22T06:09:12;17.88;;;15.35;;
57113;SDS011;42994;51.606;9.988;2023-06-22T06:11:39;21.88;;;14.77;;
57113;SDS011;42994;51.606;9.988;2023-06-22T06:14:06;25.23;;;16.42;;
57113;SDS011;42994;51.606;9.988;2023-06-22T06:16:33;23.23;;;18.08;;
57113;SDS011;42994;51.606;9.988;2023-06-22T06:18:59;19.38;;;17.35;;
57113;SDS011;42994;51.606;9.988;2023-06-22T06:21:28;23.98;;;18.50;;
57113;SDS011;42994;51.606;9.988;2023-06-22T06:23:54;22.60;;;15.50;;
57113;SDS011;42994;51.606;9.988;2023-06-22T06:26:21;18.67;;;15.98;;
57113;SDS011;42994;51.606;9.988;2023-06-22T06:28:53;17.02;;;15.32;;
57113;SDS011;42994;51.606;9.988;2023-06-22T06:31:20;18.67;;;16.48;;
57113;SDS011;42994;51.606;9.988;2023-06-22T06:33:48;22.20;;;16.20;;
57113;SDS011;42994;51.606;9.988;2023-06-22T06:36:15;18.48;;;16.45;;
57113;SDS011;42994;51.606;9.988;2023-06-22T06:38:43;18.83;;;16.92;;
57113;SDS011;42994;51.606;9.988;2023-06-22T06:41:12;22.00;;;16.73;;
57113;SDS011;42994;51.606;9.988;2023-06-22T06:43:38;21.73;;;16.25;;
57113;SDS011;42994;51.606;9.988;2023-06-22T06:46:05;18.95;;;15.82;;
57113;SDS011;42994;51.606;9.988;2023-06-22T06:48:32;17.38;;;15.38;;
57113;SDS011;42994;51.606;9.988;2023-06-22T06:50:59;22.70;;;15.13;;
57113;SDS011;42994;51.606;9.988;2023-06-22T06:53:25;19.75;;;17.13;;
57113;SDS011;42994;51.606;9.988;2023-06-22T06:55:55;21.95;;;15.48;;
57113;SDS011;42994;51.606;9.988;2023-06-22T06:58:21;19.52;;;17.05;;
57113;SDS011;42994;51.606;9.988;2023-06-22T07:00:51;23.65;;;17.60;;
57113;SDS011;42994;51.606;9.988;2023-06-22T07:03:18;19.63;;;14.05;;
57113;SDS011;42994;51.606;9.988;2023-06-22T07:05:45;16.48;;;14.20;;
57113;SDS011;42994;51.606;9.988;2023-06-22T07:08:11;14.00;;;12.57;;
57113;SDS011;42994;51.606;9.988;2023-06-22T07:10:38;16.50;;;12.63;;
57113;SDS011;42994;51.606;9.988;2023-06-22T07:13:10;19.48;;;14.48;;
57113;SDS011;42994;51.606;9.988;2023-06-22T07:18:03;15.60;;;13.40;;
57113;SDS011;42994;51.606;9.988;2023-06-22T07:20:30;22.60;;;14.52;;
57113;SDS011;42994;51.606;9.988;2023-06-22T07:22:57;17.65;;;13.10;;
57113;SDS011;42994;51.606;9.988;2023-06-22T07:25:24;14.15;;;12.73;;
57113;SDS011;42994;51.606;9.988;2023-06-22T07:27:56;14.63;;;13.10;;
57113;SDS011;42994;51.606;9.988;2023-06-22T07:30:26;14.45;;;13.00;;
57113;SDS011;42994;51.606;9.988;2023-06-22T07:32:52;14.40;;;11.88;;
57113;SDS011;42994;51.606;9.988;2023-06-22T07:35:19;15.35;;;11.50;;
57113;SDS011;42994;51.606;9.988;2023-06-22T07:37:46;13.23;;;11.73;;
57113;SDS011;42994;51.606;9.988;2023-06-22T07:40:13;14.35;;;12.15;;
57113;SDS011;42994;51.606;9.988;2023-06-22T07:42:39;13.40;;;11.63;;
57113;SDS011;42994;51.606;9.988;2023-06-22T07:45:07;11.45;;;10.23;;
57113;SDS011;42994;51.606;9.988;2023-06-22T07:47:35;16.70;;;12.63;;
57113;SDS011;42994;51.606;9.988;2023-06-22T07:50:02;13.95;;;11.90;;
57113;SDS011;42994;51.606;9.988;2023-06-22T07:52:30;11.52;;;10.40;;
57113;SDS011;42994;51.606;9.988;2023-06-22T07:54:57;11.23;;;9.85;;
57113;SDS011;42994;51.606;9.988;2023-06-22T07:57:24;13.55;;;11.23;;
57113;SDS011;42994;51.606;9.988;2023-06-22T07:59:58;12.23;;;10.68;;
57113;SDS011;42994;51.606;9.988;2023-06-22T08:02:25;15.73;;;11.20;;
57113;SDS011;42994;51.606;9.988;2023-06-22T08:04:54;10.85;;;9.80;;
57113;SDS011;42994;51.606;9.988;2023-06-22T08:07:20;11.35;;;10.25;;
57113;SDS011;42994;51.606;9.988;2023-06-22T08:09:47;10.98;;;9.95;;
57113;SDS011;42994;51.606;9.988;2023-06-22T08:12:15;11.07;;;9.93;;
57113;SDS011;42994;51.606;9.988;2023-06-22T08:14:42;13.93;;;9.90;;
57113;SDS011;42994;51.606;9.988;2023-06-22T08:17:11;12.95;;;9.15;;
57113;SDS011;42994;51.606;9.988;2023-06-22T08:19:39;12.18;;;9.18;;
57113;SDS011;42994;51.606;9.988;2023-06-22T08:22:07;13.10;;;9.50;;
57113;SDS011;42994;51.606;9.988;2023-06-22T08:24:34;10.05;;;8.50;;
57113;SDS011;42994;51.606;9.988;2023-06-22T08:27:00;9.18;;;8.20;;
57113;SDS011;42994;51.606;9.988;2023-06-22T08:29:27;11.90;;;8.85;;
57113;SDS011;42994;51.606;9.988;2023-06-22T08:31:54;10.23;;;9.07;;
57113;SDS011;42994;51.606;9.988;2023-06-22T08:34:21;9.00;;;8.10;;
57113;SDS011;42994;51.606;9.988;2023-06-22T08:36:50;9.25;;;8.35;;
57113;SDS011;42994;51.606;9.988;2023-06-22T08:39:19;10.98;;;8.93;;
57113;SDS011;42994;51.606;9.988;2023-06-22T08:41:46;8.90;;;8.05;;
57113;SDS011;42994;51.606;9.988;2023-06-22T08:44:13;11.50;;;7.85;;
57113;SDS011;42994;51.606;9.988;2023-06-22T08:46:40;8.88;;;7.97;;
57113;SDS011;42994;51.606;9.988;2023-06-22T08:49:07;8.40;;;7.63;;
57113;SDS011;42994;51.606;9.988;2023-06-22T08:51:35;9.57;;;8.05;;
57113;SDS011;42994;51.606;9.988;2023-06-22T08:54:02;11.48;;;8.80;;
57113;SDS011;42994;51.606;9.988;2023-06-22T08:56:30;9.35;;;8.15;;
57113;SDS011;42994;51.606;9.988;2023-06-22T08:58:57;9.63;;;8.45;;
57113;SDS011;42994;51.606;9.988;2023-06-22T09:01:24;11.60;;;8.30;;
57113;SDS011;42994;51.606;9.988;2023-06-22T09:03:50;10.68;;;8.45;;
57113;SDS011;42994;51.606;9.988;2023-06-22T09:06:22;12.77;;;7.75;;
57113;SDS011;42994;51.606;9.988;2023-06-22T09:08:49;8.20;;;7.40;;
57113;SDS011;42994;51.606;9.988;2023-06-22T09:11:17;9.60;;;8.55;;
57113;SDS011;42994;51.606;9.988;2023-06-22T09:13:45;10.48;;;9.13;;
57113;SDS011;42994;51.606;9.988;2023-06-22T09:16:12;8.98;;;8.15;;
57113;SDS011;42994;51.606;9.988;2023-06-22T09:18:39;9.20;;;8.30;;
57113;SDS011;42994;51.606;9.988;2023-06-22T09:21:07;8.65;;;7.45;;
57113;SDS011;42994;51.606;9.988;2023-06-22T09:23:34;11.45;;;8.18;;
57113;SDS011;42994;51.606;9.988;2023-06-22T09:26:01;9.98;;;8.77;;
57113;SDS011;42994;51.606;9.988;2023-06-22T09:28:37;13.90;;;9.15;;
57113;SDS011;42994;51.606;9.988;2023-06-22T09:31:05;9.27;;;8.48;;
57113;SDS011;42994;51.606;9.988;2023-06-22T09:33:32;9.48;;;8.45;;
57113;SDS011;42994;51.606;9.988;2023-06-22T09:35:58;9.25;;;8.35;;
57113;SDS011;42994;51.606;9.988;2023-06-22T09:38:31;10.25;;;7.95;;
57113;SDS011;42994;51.606;9.988;2023-06-22T09:41:00;10.90;;;8.75;;
57113;SDS011;42994;51.606;9.988;2023-06-22T09:43:27;11.60;;;8.57;;
57113;SDS011;42994;51.606;9.988;2023-06-22T09:45:54;8.63;;;7.82;;
57113;SDS011;42994;51.606;9.988;2023-06-22T09:48:23;13.40;;;8.15;;
57113;SDS011;42994;51.606;9.988;2023-06-22T09:50:49;9.50;;;8.65;;
57113;SDS011;42994;51.606;9.988;2023-06-22T09:53:16;12.15;;;9.25;;
57113;SDS011;42994;51.606;9.988;2023-06-22T09:55:43;10.05;;;8.20;;
57113;SDS011;42994;51.606;9.988;2023-06-22T09:58:10;8.82;;;7.70;;
57113;SDS011;42994;51.606;9.988;2023-06-22T10:00:37;8.95;;;6.90;;
57113;SDS011;42994;51.606;9.988;2023-06-22T10:03:03;8.85;;;8.15;;
57113;SDS011;42994;51.606;9.988;2023-06-22T10:05:32;8.77;;;7.72;;
57113;SDS011;42994;51.606;9.988;2023-06-22T10:07:58;9.82;;;8.40;;
57113;SDS011;42994;51.606;9.988;2023-06-22T10:10:28;9.60;;;7.57;;
57113;SDS011;42994;51.606;9.988;2023-06-22T10:12:55;10.18;;;8.05;;
57113;SDS011;42994;51.606;9.988;2023-06-22T10:15:26;9.60;;;8.10;;
57113;SDS011;42994;51.606;9.988;2023-06-22T10:17:53;7.88;;;7.18;;
57113;SDS011;42994;51.606;9.988;2023-06-22T10:20:20;8.07;;;7.28;;
57113;SDS011;42994;51.606;9.988;2023-06-22T10:22:48;8.27;;;7.60;;
57113;SDS011;42994;51.606;9.988;2023-06-22T10:25:16;8.88;;;8.07;;
57113;SDS011;42994;51.606;9.988;2023-06-22T10:27:43;8.90;;;7.88;;
57113;SDS011;42994;51.606;9.988;2023-06-22T10:30:10;11.07;;;8.20;;
57113;SDS011;42994;51.606;9.988;2023-06-22T10:32:38;8.25;;;7.55;;
57113;SDS011;42994;51.606;9.988;2023-06-22T10:35:06;9.55;;;7.80;;
57113;SDS011;42994;51.606;9.988;2023-06-22T10:37:33;9.40;;;8.38;;
57113;SDS011;42994;51.606;9.988;2023-06-22T10:40:05;9.67;;;8.20;;
57113;SDS011;42994;51.606;9.988;2023-06-22T10:42:33;13.40;;;8.47;;
57113;SDS011;42994;51.606;9.988;2023-06-22T10:45:00;9.20;;;8.30;;
57113;SDS011;42994;51.606;9.988;2023-06-22T10:47:27;9.60;;;7.50;;
57113;SDS011;42994;51.606;9.988;2023-06-22T10:49:54;8.90;;;8.00;;
57113;SDS011;42994;51.606;9.988;2023-06-22T10:52:21;8.25;;;7.55;;
57113;SDS011;42994;51.606;9.988;2023-06-22T10:54:48;9.25;;;8.15;;
57113;SDS011;42994;51.606;9.988;2023-06-22T10:57:16;7.75;;;6.90;;
57113;SDS011;42994;51.606;9.988;2023-06-22T10:59:43;9.90;;;8.05;;
57113;SDS011;42994;51.606;9.988;2023-06-22T11:02:09;9.48;;;8.55;;
57113;SDS011;42994;51.606;9.988;2023-06-22T11:04:36;9.18;;;8.45;;
57113;SDS011;42994;51.606;9.988;2023-06-22T11:07:03;11.45;;;8.05;;
57113;SDS011;42994;51.606;9.988;2023-06-22T11:09:30;8.70;;;7.88;;
57113;SDS011;42994;51.606;9.988;2023-06-22T11:11:57;10.98;;;8.30;;
57113;SDS011;42994;51.606;9.988;2023-06-22T11:14:25;8.60;;;7.80;;
57113;SDS011;42994;51.606;9.988;2023-06-22T11:16:52;9.32;;;8.52;;
57113;SDS011;42994;51.606;9.988;2023-06-22T11:19:19;10.32;;;8.45;;
57113;SDS011;42994;51.606;9.988;2023-06-22T11:21:46;13.18;;;8.65;;
57113;SDS011;42994;51.606;9.988;2023-06-22T11:24:13;9.43;;;8.55;;
57113;SDS011;42994;51.606;9.988;2023-06-22T11:26:39;9.60;;;7.90;;
57113;SDS011;42994;51.606;9.988;2023-06-22T11:29:06;8.23;;;7.15;;
57113;SDS011;42994;51.606;9.988;2023-06-22T11:31:35;15.15;;;7.75;;
57113;SDS011;42994;51.606;9.988;2023-06-22T11:34:02;8.27;;;7.57;;
57113;SDS011;42994;51.606;9.988;2023-06-22T11:36:29;8.13;;;7.28;;
57113;SDS011;42994;51.606;9.988;2023-06-22T11:38:58;8.40;;;7.70;;
57113;SDS011;42994;51.606;9.988;2023-06-22T11:41:25;8.88;;;7.10;;
57113;SDS011;42994;51.606;9.988;2023-06-22T11:43:51;7.50;;;6.70;;
57113;SDS011;42994;51.606;9.988;2023-06-22T11:46:18;7.25;;;6.60;;
57113;SDS011;42994;51.606;9.988;2023-06-22T11:48:47;7.80;;;7.10;;
57113;SDS011;42994;51.606;9.988;2023-06-22T11:51:14;7.30;;;6.60;;
57113;SDS011;42994;51.606;9.988;2023-06-22T11:53:40;10.30;;;6.63;;
57113;SDS011;42994;51.606;9.988;2023-06-22T11:56:07;7.72;;;6.93;;
57113;SDS011;42994;51.606;9.988;2023-06-22T11:58:34;8.82;;;7.80;;
57113;SDS011;42994;51.606;9.988;2023-06-22T12:01:00;7.78;;;7.07;;
57113;SDS011;42994;51.606;9.988;2023-06-22T12:03:27;7.80;;;6.50;;
57113;SDS011;42994;51.606;9.988;2023-06-22T12:05:55;7.22;;;6.43;;
57113;SDS011;42994;51.606;9.988;2023-06-22T12:08:22;7.72;;;6.53;;
57113;SDS011;42994;51.606;9.988;2023-06-22T12:10:49;6.78;;;6.18;;
57113;SDS011;42994;51.606;9.988;2023-06-22T12:13:17;6.85;;;6.35;;
57113;SDS011;42994;51.606;9.988;2023-06-22T12:15:44;10.95;;;6.68;;
57113;SDS011;42994;51.606;9.988;2023-06-22T12:18:10;6.88;;;6.22;;
57113;SDS011;42994;51.606;9.988;2023-06-22T12:20:39;9.05;;;6.35;;
57113;SDS011;42994;51.606;9.988;2023-06-22T12:23:07;6.78;;;6.28;;
57113;SDS011;42994;51.606;9.988;2023-06-22T12:25:34;8.93;;;6.68;;
57113;SDS011;42994;51.606;9.988;2023-06-22T12:28:01;7.10;;;6.32;;
57113;SDS011;42994;51.606;9.988;2023-06-22T12:30:27;7.10;;;6.50;;
57113;SDS011;42994;51.606;9.988;2023-06-22T12:32:54;7.43;;;6.65;;
57113;SDS011;42994;51.606;9.988;2023-06-22T12:35:21;8.15;;;6.65;;
57113;SDS011;42994;51.606;9.988;2023-06-22T12:37:48;7.97;;;7.28;;
57113;SDS011;42994;51.606;9.988;2023-06-22T12:40:16;7.50;;;6.80;;
57113;SDS011;42994;51.606;9.988;2023-06-22T12:42:44;7.70;;;6.53;;
57113;SDS011;42994;51.606;9.988;2023-06-22T12:45:11;7.55;;;6.88;;
57113;SDS011;42994;51.606;9.988;2023-06-22T12:47:37;9.57;;;6.45;;
57113;SDS011;42994;51.606;9.988;2023-06-22T12:50:05;8.52;;;7.10;;
57113;SDS011;42994;51.606;9.988;2023-06-22T12:52:36;7.32;;;6.63;;
57113;SDS011;42994;51.606;9.988;2023-06-22T12:55:04;7.93;;;6.75;;
57113;SDS011;42994;51.606;9.988;2023-06-22T12:57:33;7.53;;;6.57;;
57113;SDS011;42994;51.606;9.988;2023-06-22T13:00:03;7.10;;;6.40;;
57113;SDS011;42994;51.606;9.988;2023-06-22T13:02:33;7.37;;;6.70;;
57113;SDS011;42994;51.606;9.988;2023-06-22T13:04:59;9.50;;;6.53;;
57113;SDS011;42994;51.606;9.988;2023-06-22T13:07:26;8.20;;;7.00;;
57113;SDS011;42994;51.606;9.988;2023-06-22T13:09:53;12.27;;;7.35;;
57113;SDS011;42994;51.606;9.988;2023-06-22T13:12:23;7.00;;;6.40;;
57113;SDS011;42994;51.606;9.988;2023-06-22T13:14:53;8.57;;;7.70;;
57113;SDS011;42994;51.606;9.988;2023-06-22T13:17:20;7.40;;;6.72;;
57113;SDS011;42994;51.606;9.988;2023-06-22T13:19:50;9.20;;;7.65;;
57113;SDS011;42994;51.606;9.988;2023-06-22T13:22:27;10.52;;;7.40;;
57113;SDS011;42994;51.606;9.988;2023-06-22T13:24:56;9.27;;;7.47;;
57113;SDS011;42994;51.606;9.988;2023-06-22T13:27:23;9.55;;;8.05;;
57113;SDS011;42994;51.606;9.988;2023-06-22T13:29:50;8.18;;;7.38;;
57113;SDS011;42994;51.606;9.988;2023-06-22T13:32:19;10.70;;;7.53;;
57113;SDS011;42994;51.606;9.988;2023-06-22T13:34:48;13.98;;;8.40;;
57113;SDS011;42994;51.606;9.988;2023-06-22T13:37:15;9.93;;;8.57;;
57113;SDS011;42994;51.606;9.988;2023-06-22T13:39:41;10.93;;;8.73;;
57113;SDS011;42994;51.606;9.988;2023-06-22T13:42:08;8.60;;;7.78;;
57113;SDS011;42994;51.606;9.988;2023-06-22T13:44:35;8.85;;;7.20;;
57113;SDS011;42994;51.606;9.988;2023-06-22T13:47:02;15.48;;;8.35;;
57113;SDS011;42994;51.606;9.988;2023-06-22T13:49:31;8.95;;;7.57;;
57113;SDS011;42994;51.606;9.988;2023-06-22T13:51:58;10.60;;;8.60;;
57113;SDS011;42994;51.606;9.988;2023-06-22T13:54:25;9.00;;;8.13;;
57113;SDS011;42994;51.606;9.988;2023-06-22T13:56:52;12.80;;;7.55;;
57113;SDS011;42994;51.606;9.988;2023-06-22T13:59:19;8.07;;;7.38;;
57113;SDS011;42994;51.606;9.988;2023-06-22T14:01:46;10.90;;;8.25;;
57113;SDS011;42994;51.606;9.988;2023-06-22T14:04:12;11.45;;;8.98;;
57113;SDS011;42994;51.606;9.988;2023-06-22T14:06:41;10.82;;;8.05;;
57113;SDS011;42994;51.606;9.988;2023-06-22T14:09:10;8.82;;;7.10;;
57113;SDS011;42994;51.606;9.988;2023-06-22T14:11:36;10.02;;;8.02;;
57113;SDS011;42994;51.606;9.988;2023-06-22T14:14:03;11.27;;;7.80;;
57113;SDS011;42994;51.606;9.988;2023-06-22T14:16:30;7.90;;;7.30;;
57113;SDS011;42994;51.606;9.988;2023-06-22T14:18:57;8.32;;;7.50;;
57113;SDS011;42994;51.606;9.988;2023-06-22T14:21:24;12.13;;;7.82;;
57113;SDS011;42994;51.606;9.988;2023-06-22T14:23:52;8.20;;;7.50;;
57113;SDS011;42994;51.606;9.988;2023-06-22T14:26:18;8.88;;;8.07;;
57113;SDS011;42994;51.606;9.988;2023-06-22T14:28:45;10.43;;;7.53;;
57113;SDS011;42994;51.606;9.988;2023-06-22T14:31:13;9.82;;;8.38;;
57113;SDS011;42994;51.606;9.988;2023-06-22T14:33:41;11.52;;;7.93;;
57113;SDS011;42994;51.606;9.988;2023-06-22T14:36:13;9.00;;;8.05;;